createdAt,value
2019-02-09T00:01:39.589Z,101249.95
2019-02-09T00:04:30.022Z,101251.19
2019-02-09T00:07:20.423Z,101255.69
2019-02-09T00:10:11.039Z,101258.14
2019-02-09T00:13:01.715Z,101257.34
2019-02-09T00:15:52.167Z,101256.25
2019-02-09T00:18:42.647Z,101260.84
2019-02-09T00:21:33.029Z,101256.86
2019-02-09T00:24:23.507Z,101254.23
2019-02-09T00:27:14.031Z,101256.75
2019-02-09T00:30:04.446Z,101250.48
2019-02-09T00:32:54.860Z,101256.14
2019-02-09T00:35:47.908Z,101246.11
2019-02-09T00:38:38.336Z,101246.98
2019-02-09T00:41:29.024Z,101250.97
2019-02-09T00:44:19.291Z,101249.45
2019-02-09T00:47:09.708Z,101242.34
2019-02-09T00:50:00.328Z,101241.77
2019-02-09T00:52:50.588Z,101242.41
2019-02-09T00:55:41.035Z,101244.69
2019-02-09T00:58:31.637Z,101243.94
2019-02-09T01:01:25.024Z,101239.08
2019-02-09T01:04:15.369Z,101233.48
2019-02-09T01:07:05.783Z,101230.21
2019-02-09T01:09:56.230Z,101230.59
2019-02-09T01:12:46.439Z,101232.66
2019-02-09T01:15:37.012Z,101237.37
2019-02-09T01:18:28.474Z,101228.21
2019-02-09T01:21:18.895Z,101225.09
2019-02-09T01:24:09.189Z,101227.11
2019-02-09T01:26:59.883Z,101231.69
2019-02-09T01:29:50.144Z,101228.45
2019-02-09T01:32:40.694Z,101224.72
2019-02-09T01:35:31.267Z,101220.09
2019-02-09T01:38:22.022Z,101216.09
2019-02-09T01:41:12.543Z,101213.69
2019-02-09T01:44:03.087Z,101214.23
2019-02-09T01:46:53.446Z,101212.07
2019-02-09T01:49:43.999Z,101216.44
2019-02-09T01:52:34.200Z,101212.09
2019-02-09T01:55:25.593Z,101211.55
2019-02-09T01:58:16.188Z,101209.05
2019-02-09T02:01:06.615Z,101204.91
2019-02-09T02:03:56.984Z,101206.25
2019-02-09T02:06:47.479Z,101203.53
2019-02-09T02:09:37.838Z,101206.91
2019-02-09T02:12:27.991Z,101201.18
2019-02-09T02:15:18.802Z,101201.64
2019-02-09T02:18:09.551Z,101198.90
2019-02-09T02:20:59.733Z,101191.88
2019-02-09T02:23:50.751Z,101193.67
2019-02-09T02:26:41.205Z,101188.35
2019-02-09T02:29:32.091Z,101188.81
2019-02-09T02:32:22.494Z,101191.55
2019-02-09T02:35:13.151Z,101189.08
2019-02-09T02:38:03.588Z,101185.58
2019-02-09T02:40:54.458Z,101190.03
2019-02-09T02:43:44.860Z,101191.36
2019-02-09T02:46:35.375Z,101193.86
2019-02-09T02:49:25.588Z,101198.19
2019-02-09T02:52:16.074Z,101197.61
2019-02-09T02:55:06.534Z,101201.56
2019-02-09T02:57:56.817Z,101205.39
2019-02-09T03:00:47.317Z,101206.80
2019-02-09T03:03:37.752Z,101211.81
2019-02-09T03:06:28.081Z,101210.59
2019-02-09T03:09:21.368Z,101209.52
2019-02-09T03:12:11.667Z,101208.38
2019-02-09T03:15:02.142Z,101210.88
2019-02-09T03:17:52.331Z,101209.63
2019-02-09T03:20:43.069Z,101213.35
2019-02-09T03:23:33.512Z,101209.13
2019-02-09T03:26:23.968Z,101221.20
2019-02-09T03:29:14.229Z,101225.53
2019-02-09T03:32:04.694Z,101225.61
2019-02-09T03:34:56.208Z,101219.34
2019-02-09T03:37:48.992Z,101228.94
2019-02-09T03:40:39.488Z,101228.91
2019-02-09T03:43:30.092Z,101228.78
2019-02-09T03:46:20.472Z,101228.09
2019-02-09T03:49:11.144Z,101226.45
2019-02-09T03:52:01.647Z,101229.95
2019-02-09T03:54:52.167Z,101231.17
2019-02-09T03:57:42.547Z,101233.73
2019-02-09T04:00:33.370Z,101245.73
2019-02-09T04:03:23.770Z,101238.02
2019-02-09T04:06:14.283Z,101244.17
2019-02-09T04:09:05.648Z,101243.19
2019-02-09T04:11:56.481Z,101248.13
2019-02-09T04:14:46.947Z,101246.95
2019-02-09T04:17:37.159Z,101253.59
2019-02-09T04:20:27.671Z,101249.49
2019-02-09T04:23:18.189Z,101251.35
2019-02-09T04:26:08.661Z,101236.01
2019-02-09T04:28:58.891Z,101253.73
2019-02-09T04:31:49.235Z,101248.05
2019-02-09T04:34:39.548Z,101246.75
2019-02-09T04:37:30.020Z,101246.30
2019-02-09T04:40:25.230Z,101245.50
2019-02-09T04:43:15.441Z,101246.03
2019-02-09T04:46:06.148Z,101248.16
2019-02-09T04:48:56.406Z,101252.82
2019-02-09T04:51:47.813Z,101248.11
2019-02-09T04:54:38.218Z,101250.96
2019-02-09T04:57:28.755Z,101250.04
2019-02-09T05:00:21.275Z,101253.64
2019-02-09T05:03:11.873Z,101254.83
2019-02-09T05:06:02.304Z,101252.84
2019-02-09T05:08:52.857Z,101258.69
2019-02-09T05:11:44.374Z,101254.08
2019-02-09T05:14:34.884Z,101258.94
2019-02-09T05:17:25.246Z,101263.19
2019-02-09T05:20:17.281Z,101260.23
2019-02-09T05:23:07.432Z,101264.23
2019-02-09T05:25:57.974Z,101260.65
2019-02-09T05:28:48.332Z,101256.67
2019-02-09T05:31:38.987Z,101265.17
2019-02-09T05:34:29.396Z,101271.47
2019-02-09T05:37:19.664Z,101263.42
2019-02-09T05:40:11.285Z,101273.95
2019-02-09T05:43:01.593Z,101273.00
2019-02-09T05:45:52.114Z,101267.30
2019-02-09T05:48:43.089Z,101270.77
2019-02-09T05:51:33.544Z,101273.42
2019-02-09T05:54:23.724Z,101284.70
2019-02-09T05:57:14.213Z,101278.97
2019-02-09T06:00:04.884Z,101284.44
2019-02-09T06:02:55.137Z,101287.71
2019-02-09T06:05:45.640Z,101286.88
2019-02-09T06:08:36.087Z,101292.72
2019-02-09T06:11:26.516Z,101293.03
2019-02-09T06:14:16.647Z,101289.48
2019-02-09T06:17:07.543Z,101291.45
2019-02-09T06:19:58.190Z,101295.16
2019-02-09T06:22:49.159Z,101301.41
2019-02-09T06:25:39.703Z,101299.85
2019-02-09T06:28:30.180Z,101300.66
2019-02-09T06:31:20.356Z,101294.55
2019-02-09T06:34:11.006Z,101302.55
2019-02-09T06:37:01.433Z,101303.86
2019-02-09T06:39:51.582Z,101307.20
2019-02-09T06:42:42.011Z,101308.53
2019-02-09T06:45:32.716Z,101313.50
2019-02-09T06:48:28.428Z,101310.22
2019-02-09T06:51:18.964Z,101318.44
2019-02-09T06:54:09.417Z,101313.12
2019-02-09T06:57:00.334Z,101326.00
2019-02-09T06:59:50.784Z,101326.94
2019-02-09T07:02:41.324Z,101330.95
2019-02-09T07:05:31.910Z,101328.11
2019-02-09T07:08:22.309Z,101326.95
2019-02-09T07:11:12.870Z,101327.66
2019-02-09T07:14:04.464Z,101334.72
2019-02-09T07:16:54.617Z,101330.09
2019-02-09T07:19:45.639Z,101333.39
2019-02-09T07:22:36.056Z,101334.47
2019-02-09T07:25:26.606Z,101332.47
2019-02-09T07:28:16.812Z,101332.94
2019-02-09T07:31:08.266Z,101334.32
2019-02-09T07:33:58.596Z,101327.58
2019-02-09T07:36:48.943Z,101333.11
2019-02-09T07:39:39.586Z,101332.01
2019-02-09T07:42:30.325Z,101330.88
2019-02-09T07:45:22.658Z,101329.34
2019-02-09T07:48:15.721Z,101332.36
2019-02-09T07:51:06.343Z,101338.09
2019-02-09T07:53:56.909Z,101349.52
2019-02-09T07:56:47.447Z,101326.59
2019-02-09T07:59:37.699Z,101350.93
2019-02-09T08:02:28.078Z,101349.08
2019-02-09T08:05:18.386Z,101353.97
2019-02-09T08:08:08.889Z,101356.98
2019-02-09T08:10:59.353Z,101355.07
2019-02-09T08:13:49.808Z,101359.66
2019-02-09T08:16:40.072Z,101357.52
2019-02-09T08:19:30.638Z,101358.09
2019-02-09T08:22:21.312Z,101359.76
2019-02-09T08:25:14.063Z,101362.88
2019-02-09T08:28:04.655Z,101363.51
2019-02-09T08:30:56.343Z,101364.80
2019-02-09T08:33:47.005Z,101365.43
2019-02-09T08:36:37.459Z,101373.23
2019-02-09T08:39:27.729Z,101367.59
2019-02-09T08:42:17.838Z,101374.52
2019-02-09T08:45:11.844Z,101376.92
2019-02-09T08:48:02.218Z,101376.89
2019-02-09T08:50:59.491Z,101376.02
2019-02-09T08:53:49.817Z,101376.74
2019-02-09T08:56:40.408Z,101375.96
2019-02-09T08:59:30.827Z,101378.95
2019-02-09T09:02:21.279Z,101384.20
2019-02-09T09:05:12.117Z,101373.83
2019-02-09T09:08:02.727Z,101374.85
2019-02-09T09:10:53.190Z,101376.22
2019-02-09T09:13:43.784Z,101377.89
2019-02-09T09:16:34.176Z,101375.56
2019-02-09T09:19:24.763Z,101369.19
2019-02-09T09:22:15.471Z,101380.59
2019-02-09T09:25:07.140Z,101381.48
2019-02-09T09:27:57.654Z,101385.53
2019-02-09T09:30:47.849Z,101374.24
2019-02-09T09:33:38.207Z,101373.13
2019-02-09T09:36:28.672Z,101364.02
2019-02-09T09:39:19.181Z,101347.07
2019-02-09T09:42:09.876Z,101350.51
2019-02-09T09:45:00.257Z,101359.86
2019-02-09T09:47:50.995Z,101360.77
2019-02-09T09:50:41.554Z,101363.91
2019-02-09T09:53:31.952Z,101369.96
2019-02-09T09:56:22.243Z,101361.54
2019-02-09T09:59:13.204Z,101345.10
2019-02-09T10:02:03.745Z,101350.06
2019-02-09T10:04:53.941Z,101347.92
2019-02-09T10:07:44.396Z,101348.02
2019-02-09T10:10:35.005Z,101346.83
2019-02-09T10:13:25.493Z,101349.88
2019-02-09T10:16:16.319Z,101348.08
2019-02-09T10:19:06.671Z,101354.11
2019-02-09T10:21:56.952Z,101346.02
2019-02-09T10:24:47.402Z,101337.87
2019-02-09T10:27:37.676Z,101345.81
2019-02-09T10:30:31.895Z,101341.27
2019-02-09T10:33:22.488Z,101346.95
2019-02-09T10:36:13.007Z,101337.98
2019-02-09T10:39:04.245Z,101333.72
2019-02-09T10:41:54.745Z,101338.58
2019-02-09T10:44:45.627Z,101333.13
2019-02-09T10:47:36.290Z,101326.47
2019-02-09T10:50:28.912Z,101320.03
2019-02-09T10:53:19.135Z,101325.31
2019-02-09T10:56:09.692Z,101316.78
2019-02-09T10:58:59.877Z,101317.42
2019-02-09T11:01:50.513Z,101317.10
2019-02-09T11:04:40.910Z,101312.28
2019-02-09T11:07:31.505Z,101316.95
2019-02-09T11:10:22.029Z,101309.12
2019-02-09T11:13:12.615Z,101305.26
2019-02-09T11:16:03.194Z,101303.51
2019-02-09T11:18:53.816Z,101303.33
2019-02-09T11:21:44.295Z,101298.08
2019-02-09T11:24:34.940Z,101295.00
2019-02-09T11:27:26.276Z,101297.90
2019-02-09T11:30:20.010Z,101292.97
2019-02-09T11:33:10.244Z,101297.06
2019-02-09T11:36:00.870Z,101292.53
2019-02-09T11:38:51.299Z,101294.30
2019-02-09T11:41:41.493Z,101294.33
2019-02-09T11:44:31.879Z,101289.12
2019-02-09T11:47:22.717Z,101286.20
2019-02-09T11:50:13.381Z,101292.06
2019-02-09T11:53:03.888Z,101287.21
2019-02-09T11:55:54.100Z,101283.73
2019-02-09T11:58:44.508Z,101278.95
2019-02-09T12:01:36.130Z,101281.34
2019-02-09T12:04:27.139Z,101284.40
2019-02-09T12:07:17.481Z,101284.65
2019-02-09T12:10:08.790Z,101281.03
2019-02-09T12:12:59.185Z,101280.65
2019-02-09T12:15:49.939Z,101266.52
2019-02-09T12:18:40.475Z,101274.46
2019-02-09T12:21:30.774Z,101274.04
2019-02-09T12:24:20.978Z,101275.96
2019-02-09T12:27:11.555Z,101266.20
2019-02-09T12:30:02.139Z,101270.75
2019-02-09T12:32:54.009Z,101267.60
2019-02-09T12:35:44.613Z,101265.30
2019-02-09T12:38:35.305Z,101264.02
2019-02-09T12:41:28.513Z,101260.80
2019-02-09T12:44:19.038Z,101257.17
2019-02-09T12:47:09.533Z,101271.94
2019-02-09T12:49:59.996Z,101256.80
2019-02-09T12:52:50.349Z,101267.33
2019-02-09T12:55:41.836Z,101263.50
2019-02-09T12:58:32.500Z,101260.58
2019-02-09T13:01:23.007Z,101254.72
2019-02-09T13:04:13.465Z,101253.24
2019-02-09T13:07:04.177Z,101258.59
2019-02-09T13:09:54.539Z,101252.73
2019-02-09T13:12:45.031Z,101256.97
2019-02-09T13:15:35.414Z,101249.80
2019-02-09T13:18:26.167Z,101258.81
2019-02-09T13:21:19.903Z,101255.36
2019-02-09T13:24:10.601Z,101255.17
2019-02-09T13:27:01.220Z,101254.13
2019-02-09T13:29:51.881Z,101248.83
2019-02-09T13:32:42.112Z,101250.13
2019-02-09T13:35:32.524Z,101247.09
2019-02-09T13:38:22.939Z,101248.08
2019-02-09T13:41:13.300Z,101251.81
2019-02-09T13:44:03.762Z,101239.64
2019-02-09T13:46:54.419Z,101241.28
2019-02-09T13:49:44.907Z,101236.09
2019-02-09T13:52:35.177Z,101237.84
2019-02-09T13:55:25.776Z,101229.23
2019-02-09T13:58:16.513Z,101236.05
2019-02-09T14:01:07.146Z,101238.56
2019-02-09T14:03:57.346Z,101244.64
2019-02-09T14:06:49.758Z,101229.41
2019-02-09T14:09:40.441Z,101228.17
2019-02-09T14:12:30.891Z,101227.06
2019-02-09T14:15:23.234Z,101230.55
2019-02-09T14:18:13.504Z,101232.30
2019-02-09T14:21:03.676Z,101233.31
2019-02-09T14:23:54.192Z,101211.36
2019-02-09T14:26:44.666Z,101235.58
2019-02-09T14:29:35.169Z,101241.61
2019-02-09T14:32:25.832Z,101237.73
2019-02-09T14:35:16.405Z,101238.16
2019-02-09T14:38:07.253Z,101246.14
2019-02-09T14:40:57.688Z,101247.48
2019-02-09T14:43:48.142Z,101245.83
2019-02-09T14:46:39.932Z,101247.35
2019-02-09T14:49:30.301Z,101245.06
2019-02-09T14:52:20.620Z,101248.19
2019-02-09T14:55:13.439Z,101252.77
2019-02-09T14:58:03.635Z,101236.64
2019-02-09T15:00:54.637Z,101245.19
2019-02-09T15:03:44.837Z,101247.86
2019-02-09T15:06:35.117Z,101250.53
2019-02-09T15:09:25.585Z,101221.61
2019-02-09T15:12:15.975Z,101247.85
2019-02-09T15:15:10.151Z,101245.11
2019-02-09T15:18:01.060Z,101244.78
2019-02-09T15:20:54.833Z,101240.84
2019-02-09T15:23:45.378Z,101244.14
2019-02-09T15:26:35.768Z,101245.62
2019-02-09T15:29:26.169Z,101245.25
2019-02-09T15:32:16.852Z,101245.06
2019-02-09T15:35:09.156Z,101241.92
2019-02-09T15:37:59.857Z,101241.83
2019-02-09T15:40:50.396Z,101236.44
2019-02-09T15:43:40.858Z,101239.33
2019-02-09T15:46:31.353Z,101242.52
2019-02-09T15:49:21.814Z,101237.70
2019-02-09T15:52:12.059Z,101239.66
2019-02-09T15:55:02.572Z,101249.87
2019-02-09T15:57:52.759Z,101245.66
2019-02-09T16:00:43.147Z,101245.16
2019-02-09T16:03:33.599Z,101250.13
2019-02-09T16:06:24.159Z,101253.75
2019-02-09T16:09:14.591Z,101256.25
2019-02-09T16:12:05.033Z,101251.39
2019-02-09T16:14:55.801Z,101250.14
2019-02-09T16:17:45.832Z,101256.54
2019-02-09T16:20:36.327Z,101257.31
2019-02-09T16:23:26.885Z,101264.22
2019-02-09T16:26:17.516Z,101257.00
2019-02-09T16:29:07.905Z,101255.04
2019-02-09T16:31:58.802Z,101251.64
2019-02-09T16:34:49.324Z,101250.39
2019-02-09T16:37:40.292Z,101251.64
2019-02-09T16:40:30.790Z,101255.99
2019-02-09T16:43:21.602Z,101252.16
2019-02-09T16:46:12.096Z,101248.67
2019-02-09T16:49:02.769Z,101256.28
2019-02-09T16:51:53.047Z,101254.42
2019-02-09T16:54:43.276Z,101253.94
2019-02-09T16:57:33.381Z,101246.67
2019-02-09T17:00:29.430Z,101245.66
2019-02-09T17:03:19.860Z,101250.25
2019-02-09T17:06:13.179Z,101250.74
2019-02-09T17:09:04.040Z,101258.57
2019-02-09T17:11:55.370Z,101256.41
2019-02-09T17:14:45.747Z,101259.86
2019-02-09T17:17:36.023Z,101265.64
2019-02-09T17:20:26.466Z,101265.11
2019-02-09T17:23:16.931Z,101264.80
2019-02-09T17:26:07.398Z,101274.41
2019-02-09T17:28:58.235Z,101276.27
2019-02-09T17:31:48.834Z,101274.72
2019-02-09T17:34:41.199Z,101280.15
2019-02-09T17:37:31.572Z,101282.05
2019-02-09T17:40:27.430Z,101279.73
2019-02-09T17:43:18.073Z,101283.33
2019-02-09T17:46:11.923Z,101290.28
2019-02-09T17:49:02.140Z,101295.88
2019-02-09T17:51:52.756Z,101291.23
2019-02-09T17:54:43.092Z,101296.27
2019-02-09T17:57:33.445Z,101292.48
2019-02-09T18:00:49.004Z,101303.98
2019-02-09T18:03:39.363Z,101299.96
2019-02-09T18:06:29.577Z,101290.16
2019-02-09T18:09:20.236Z,101292.94
2019-02-09T18:12:10.882Z,101293.97
2019-02-09T18:15:01.305Z,101293.36
2019-02-09T18:17:52.004Z,101297.39
2019-02-09T18:20:42.693Z,101295.95
2019-02-09T18:23:32.998Z,101288.58
2019-02-09T18:26:23.205Z,101286.59
2019-02-09T18:29:13.733Z,101285.12
2019-02-09T18:32:04.687Z,101282.73
2019-02-09T18:34:56.265Z,101282.31
2019-02-09T18:37:46.952Z,101292.03
2019-02-09T18:40:37.357Z,101285.12
2019-02-09T18:43:28.321Z,101284.70
2019-02-09T18:46:18.825Z,101283.26
2019-02-09T18:49:09.395Z,101283.25
2019-02-09T18:51:59.863Z,101279.30
2019-02-09T18:54:50.603Z,101282.98
2019-02-09T18:57:41.073Z,101287.89
2019-02-09T19:00:32.578Z,101278.73
2019-02-09T19:03:22.820Z,101284.36
2019-02-09T19:06:13.416Z,101284.70
2019-02-09T19:09:04.883Z,101284.31
2019-02-09T19:11:56.692Z,101272.09
2019-02-09T19:14:47.016Z,101286.82
2019-02-09T19:17:37.373Z,101292.59
2019-02-09T19:20:30.443Z,101300.52
2019-02-09T19:23:20.796Z,101305.31
2019-02-09T19:26:11.260Z,101305.12
2019-02-09T19:29:01.982Z,101302.13
2019-02-09T19:31:52.453Z,101308.09
2019-02-09T19:34:42.958Z,101302.79
2019-02-09T19:37:33.501Z,101303.06
2019-02-09T19:40:23.972Z,101306.25
2019-02-09T19:43:14.361Z,101306.83
2019-02-09T19:46:04.693Z,101303.45
2019-02-09T19:48:55.128Z,101304.78
2019-02-09T19:51:45.971Z,101306.76
2019-02-09T19:54:36.169Z,101300.11
2019-02-09T19:57:26.795Z,101303.98
2019-02-09T20:00:20.299Z,101311.16
2019-02-09T20:03:10.808Z,101307.09
2019-02-09T20:06:00.907Z,101307.28
2019-02-09T20:08:51.530Z,101310.44
2019-02-09T20:11:42.162Z,101316.06
2019-02-09T20:14:32.643Z,101313.86
2019-02-09T20:17:22.853Z,101311.48
2019-02-09T20:20:14.032Z,101321.45
2019-02-09T20:23:04.417Z,101322.17
2019-02-09T20:25:54.907Z,101325.13
2019-02-09T20:28:45.015Z,101330.44
2019-02-09T20:31:35.617Z,101334.28
2019-02-09T20:34:25.998Z,101330.68
2019-02-09T20:37:16.188Z,101327.64
2019-02-09T20:40:08.700Z,101329.49
2019-02-09T20:43:02.214Z,101329.88
2019-02-09T20:45:51.697Z,101334.09
2019-02-09T20:48:42.165Z,101337.74
2019-02-09T20:51:32.589Z,101333.19
2019-02-09T20:54:23.097Z,101341.63
2019-02-09T20:57:13.298Z,101341.55
2019-02-09T21:00:09.961Z,101343.53
2019-02-09T21:03:00.271Z,101335.56
2019-02-09T21:05:51.020Z,101338.48
2019-02-09T21:08:41.674Z,101331.47
2019-02-09T21:11:31.917Z,101334.66
2019-02-09T21:14:22.340Z,101333.45
2019-02-09T21:17:12.948Z,101336.91
2019-02-09T21:20:03.667Z,101336.41
2019-02-09T21:22:54.203Z,101333.98
2019-02-09T21:25:45.452Z,101333.98
2019-02-09T21:28:37.024Z,101332.13
2019-02-09T21:31:27.409Z,101319.73
2019-02-09T21:34:17.725Z,101323.34
2019-02-09T21:37:07.987Z,101323.50
2019-02-09T21:39:58.342Z,101318.98
2019-02-09T21:42:48.955Z,101323.34
2019-02-09T21:45:44.792Z,101319.77
2019-02-09T21:48:31.317Z,101319.84
2019-02-09T21:51:21.709Z,101326.88
2019-02-09T21:54:12.164Z,101326.91
2019-02-09T21:57:02.653Z,101324.90
2019-02-09T21:59:52.849Z,101331.47
2019-02-09T22:02:43.099Z,101332.95
2019-02-09T22:05:33.485Z,101333.33
2019-02-09T22:08:24.234Z,101329.61
2019-02-09T22:11:14.728Z,101334.45
2019-02-09T22:14:05.561Z,101335.97
2019-02-09T22:16:56.104Z,101331.94
2019-02-09T22:19:46.518Z,101338.24
2019-02-09T22:22:36.923Z,101338.39
2019-02-09T22:25:30.074Z,101331.73
2019-02-09T22:28:20.192Z,101337.38
2019-02-09T22:31:10.665Z,101344.78
2019-02-09T22:34:00.997Z,101341.94
2019-02-09T22:36:51.779Z,101342.97
2019-02-09T22:39:41.946Z,101345.63
2019-02-09T22:42:32.142Z,101346.11
2019-02-09T22:45:22.588Z,101348.81
2019-02-09T22:48:12.973Z,101350.56
2019-02-09T22:51:03.604Z,101356.12
2019-02-09T22:53:53.995Z,101345.13
2019-02-09T22:56:44.457Z,101352.16
2019-02-09T22:59:34.920Z,101360.67
2019-02-09T23:02:25.270Z,101355.59
2019-02-09T23:05:57.989Z,101357.14
2019-02-09T23:08:48.183Z,101357.06
2019-02-09T23:11:38.472Z,101354.02
2019-02-09T23:14:29.034Z,101355.20
2019-02-09T23:17:19.682Z,101351.44
2019-02-09T23:20:11.229Z,101353.45
2019-02-09T23:23:01.372Z,101352.27
2019-02-09T23:25:51.621Z,101354.02
2019-02-09T23:28:43.769Z,101353.45
2019-02-09T23:31:33.971Z,101350.95
2019-02-09T23:34:24.328Z,101344.71
2019-02-09T23:37:14.758Z,101353.15
2019-02-09T23:40:04.973Z,101347.87
2019-02-09T23:42:55.398Z,101339.05
2019-02-09T23:45:46.065Z,101312.38
2019-02-09T23:48:36.296Z,101329.63
2019-02-09T23:51:27.158Z,101327.22
2019-02-09T23:54:17.284Z,101325.36
2019-02-09T23:57:07.700Z,101303.32
2019-02-09T23:59:58.213Z,101324.95
